Time;durP1;ratioP1;P1;durP2;ratioP2;P2;SDS_P1;SDS_P2;PMS_P1;PMS_P2;Temp;Humidity;BMP_temperature;BMP_pressure;BME280_temperature;BME280_humidity;BME280_pressure;Samples;Min_cycle;Max_cycle;Signal;HPM_P1;HPM_P2
2023/10/11 00:00:37;;;;;;;16.42;4.88;;;;;;;;;;4972359;28;20572;-70
2023/10/11 00:03:05;;;;;;;11.73;4.40;;;;;;;;;;4972179;28;20039;-71
2023/10/11 00:05:41;;;;;;;10.80;3.75;;;;;;;;;;4972068;28;20030;-70
2023/10/11 00:08:09;;;;;;;13.35;4.18;;;;;;;;;;4966525;28;20039;-70
2023/10/11 00:10:43;;;;;;;10.13;3.75;;;;;;;;;;4962358;28;20056;-71
2023/10/11 00:13:11;;;;;;;16.13;4.55;;;;;;;;;;4980729;28;20062;-71
2023/10/11 00:15:37;;;;;;;12.63;4.55;;;;;;;;;;4970190;28;20023;-71
2023/10/11 00:18:02;;;;;;;10.02;4.38;;;;;;;;;;4981684;28;20096;-70
2023/10/11 00:20:31;;;;;;;14.80;4.65;;;;;;;;;;4984096;28;20030;-70
2023/10/11 00:22:59;;;;;;;12.57;4.15;;;;;;;;;;4975828;28;20046;-70
2023/10/11 00:25:25;;;;;;;9.27;3.85;;;;;;;;;;4975600;28;20106;-71
2023/10/11 00:27:58;;;;;;;9.15;4.15;;;;;;;;;;4976526;28;20026;-70
2023/10/11 00:30:25;;;;;;;9.40;4.28;;;;;;;;;;4974708;28;20130;-70
2023/10/11 00:32:52;;;;;;;14.82;4.53;;;;;;;;;;4958716;28;20026;-70
2023/10/11 00:35:18;;;;;;;11.57;5.22;;;;;;;;;;4970970;28;20039;-70
2023/10/11 00:37:49;;;;;;;9.48;4.43;;;;;;;;;;4977321;28;20480;-69
2023/10/11 00:40:25;;;;;;;18.00;4.82;;;;;;;;;;4975167;28;20039;-70
2023/10/11 00:42:52;;;;;;;8.93;4.13;;;;;;;;;;4967240;28;20098;-70
2023/10/11 00:45:21;;;;;;;10.27;4.63;;;;;;;;;;4975334;28;20029;-70
2023/10/11 00:47:51;;;;;;;13.38;5.28;;;;;;;;;;4979102;28;20035;-70
2023/10/11 00:50:21;;;;;;;13.23;6.07;;;;;;;;;;4951354;28;20114;-70
2023/10/11 00:52:48;;;;;;;9.02;4.30;;;;;;;;;;4967354;28;20042;-70
2023/10/11 00:55:24;;;;;;;10.20;3.97;;;;;;;;;;4970677;28;20091;-70
2023/10/11 00:57:53;;;;;;;8.80;3.63;;;;;;;;;;4967853;28;20045;-70
2023/10/11 01:00:23;;;;;;;9.95;3.63;;;;;;;;;;4990102;28;20132;-71
2023/10/11 01:02:54;;;;;;;5.93;3.28;;;;;;;;;;4970802;28;20035;-70
2023/10/11 01:05:22;;;;;;;9.43;3.67;;;;;;;;;;4971254;28;20477;-70
2023/10/11 01:07:51;;;;;;;9.73;3.50;;;;;;;;;;4982256;28;20023;-69
2023/10/11 01:10:22;;;;;;;7.30;3.00;;;;;;;;;;4970410;28;20501;-69
2023/10/11 01:12:48;;;;;;;4.25;2.58;;;;;;;;;;4962696;28;20027;-70
2023/10/11 01:15:15;;;;;;;5.47;2.67;;;;;;;;;;4968030;28;20018;-71
2023/10/11 01:17:41;;;;;;;3.63;2.28;;;;;;;;;;4970232;28;20063;-70
2023/10/11 01:20:14;;;;;;;3.97;2.58;;;;;;;;;;4969918;28;20051;-71
2023/10/11 01:22:44;;;;;;;5.88;2.17;;;;;;;;;;4981782;28;20389;-70
2023/10/11 01:25:18;;;;;;;5.00;2.20;;;;;;;;;;4979431;28;20034;-71
2023/10/11 01:27:45;;;;;;;6.53;2.60;;;;;;;;;;4975423;28;20073;-70
2023/10/11 01:30:11;;;;;;;6.78;2.30;;;;;;;;;;4970044;28;20074;-70
2023/10/11 01:32:41;;;;;;;5.13;2.60;;;;;;;;;;4989524;28;20053;-71
2023/10/11 01:35:19;;;;;;;5.00;2.28;;;;;;;;;;4989403;28;20078;-71
2023/10/11 01:37:46;;;;;;;4.95;2.50;;;;;;;;;;4989440;28;20062;-71
2023/10/11 01:40:20;;;;;;;7.05;3.13;;;;;;;;;;4989530;28;20023;-71
2023/10/11 01:42:51;;;;;;;4.05;2.85;;;;;;;;;;4974490;28;20045;-71
2023/10/11 01:45:23;;;;;;;7.70;3.20;;;;;;;;;;4985200;28;20066;-71
2023/10/11 01:47:56;;;;;;;6.25;2.97;;;;;;;;;;4971546;28;20496;-71
2023/10/11 01:50:24;;;;;;;4.97;2.50;;;;;;;;;;4966038;28;20061;-70
2023/10/11 01:52:50;;;;;;;5.75;2.80;;;;;;;;;;4988813;28;20591;-70
2023/10/11 01:55:17;;;;;;;7.30;3.05;;;;;;;;;;4969075;28;20114;-71
2023/10/11 01:57:48;;;;;;;8.80;2.90;;;;;;;;;;4975922;28;20034;-70
2023/10/11 02:00:23;;;;;;;5.82;2.70;;;;;;;;;;4967400;28;20035;-71
2023/10/11 02:02:55;;;;;;;5.95;2.90;;;;;;;;;;4955632;28;20034;-71
2023/10/11 02:05:25;;;;;;;8.18;3.35;;;;;;;;;;4968373;28;20030;-70
2023/10/11 02:07:52;;;;;;;9.32;3.00;;;;;;;;;;4968506;28;20406;-69
2023/10/11 02:10:26;;;;;;;9.32;3.10;;;;;;;;;;4968103;28;20057;-69
2023/10/11 02:12:55;;;;;;;6.82;2.83;;;;;;;;;;4975992;28;20508;-72
2023/10/11 02:15:27;;;;;;;9.02;3.05;;;;;;;;;;4968560;28;20046;-71
2023/10/11 02:17:57;;;;;;;5.63;3.08;;;;;;;;;;4964588;28;20058;-70
2023/10/11 02:20:24;;;;;;;4.47;2.30;;;;;;;;;;4949968;29;20068;-70
2023/10/11 02:22:55;;;;;;;6.00;2.55;;;;;;;;;;4949685;28;20118;-71
2023/10/11 02:25:25;;;;;;;7.35;2.20;;;;;;;;;;4950519;29;20381;-71
2023/10/11 02:27:53;;;;;;;4.45;2.90;;;;;;;;;;4950970;28;20039;-71
2023/10/11 02:30:21;;;;;;;7.07;2.47;;;;;;;;;;4953944;28;20468;-71
2023/10/11 02:32:51;;;;;;;6.93;2.47;;;;;;;;;;4963724;28;20142;-71
2023/10/11 02:35:26;;;;;;;5.20;2.63;;;;;;;;;;4959627;28;20026;-71
2023/10/11 02:37:55;;;;;;;4.65;2.53;;;;;;;;;;4993566;28;20037;-71
2023/10/11 02:40:24;;;;;;;5.10;2.33;;;;;;;;;;4991690;28;20034;-71
2023/10/11 02:42:56;;;;;;;6.55;3.53;;;;;;;;;;4992916;28;20030;-71
2023/10/11 02:45:23;;;;;;;10.55;2.83;;;;;;;;;;4992823;28;20109;-71
2023/10/11 02:47:49;;;;;;;4.50;2.67;;;;;;;;;;4984344;28;20105;-71
2023/10/11 02:50:15;;;;;;;5.40;2.50;;;;;;;;;;4973350;28;20038;-70
2023/10/11 02:52:42;;;;;;;7.07;2.67;;;;;;;;;;4972146;28;20037;-70
2023/10/11 02:55:17;;;;;;;6.43;3.10;;;;;;;;;;4971867;28;20035;-70
2023/10/11 02:57:43;;;;;;;6.72;3.00;;;;;;;;;;4972083;28;20035;-71
2023/10/11 03:00:21;;;;;;;6.30;3.20;;;;;;;;;;4973145;28;20030;-71
2023/10/11 03:02:54;;;;;;;4.00;2.83;;;;;;;;;;4968270;28;20062;-71
2023/10/11 03:05:28;;;;;;;5.38;3.10;;;;;;;;;;4967307;28;20117;-71
2023/10/11 03:07:56;;;;;;;4.75;2.75;;;;;;;;;;4966204;28;20501;-70
2023/10/11 03:10:22;;;;;;;5.82;2.85;;;;;;;;;;4967419;28;20378;-71
2023/10/11 03:12:51;;;;;;;5.85;2.90;;;;;;;;;;4967654;28;20038;-71
2023/10/11 03:15:21;;;;;;;7.28;2.92;;;;;;;;;;4968668;28;20038;-72
2023/10/11 03:17:52;;;;;;;5.45;3.10;;;;;;;;;;4964477;28;20027;-71
2023/10/11 03:20:37;;;;;;;6.28;2.92;;;;;;;;;;4949636;29;20596;-71
2023/10/11 03:23:10;;;;;;;6.63;2.95;;;;;;;;;;4949886;29;20035;-71
2023/10/11 03:25:38;;;;;;;5.75;2.97;;;;;;;;;;4949017;28;20042;-70
2023/10/11 03:28:12;;;;;;;6.25;3.22;;;;;;;;;;4949528;29;20027;-71
2023/10/11 03:30:38;;;;;;;9.07;3.13;;;;;;;;;;4952067;28;20122;-71
2023/10/11 03:33:06;;;;;;;6.30;2.88;;;;;;;;;;4968587;28;20106;-70
2023/10/11 03:35:38;;;;;;;5.82;3.00;;;;;;;;;;4968796;28;20093;-71
2023/10/11 03:38:16;;;;;;;7.57;3.50;;;;;;;;;;4981779;28;20035;-71
2023/10/11 03:41:07;;;;;;;8.10;3.00;;;;;;;;;;4991574;28;20515;-71
2023/10/11 03:43:33;;;;;;;4.78;2.65;;;;;;;;;;4992201;28;20412;-71
2023/10/11 03:46:01;;;;;;;5.63;3.28;;;;;;;;;;4994779;28;20110;-71
2023/10/11 03:48:35;;;;;;;5.95;3.10;;;;;;;;;;4977933;28;20046;-70
2023/10/11 03:51:06;;;;;;;7.90;3.30;;;;;;;;;;4968436;28;20042;-73
2023/10/11 03:53:32;;;;;;;9.43;3.45;;;;;;;;;;4985817;28;20433;-71
2023/10/11 03:55:58;;;;;;;7.88;3.67;;;;;;;;;;4994619;28;20022;-71
2023/10/11 03:58:33;;;;;;;8.88;3.53;;;;;;;;;;4994731;28;20058;-71
2023/10/11 04:03:34;;;;;;;9.75;3.10;;;;;;;;;;4978403;28;20034;-70
2023/10/11 04:06:00;;;;;;;9.63;3.30;;;;;;;;;;4975360;28;20455;-70
2023/10/11 04:08:26;;;;;;;9.73;3.53;;;;;;;;;;4973197;28;20043;-70
2023/10/11 04:10:53;;;;;;;8.27;3.28;;;;;;;;;;4974283;28;20106;-71
2023/10/11 04:13:27;;;;;;;10.82;3.80;;;;;;;;;;4975692;28;20464;-71
2023/10/11 04:15:55;;;;;;;6.53;3.22;;;;;;;;;;4975418;28;20496;-70
2023/10/11 04:18:33;;;;;;;12.65;4.65;;;;;;;;;;4975733;28;20030;-71
2023/10/11 04:23:39;;;;;;;10.00;3.67;;;;;;;;;;4975431;28;20114;-70
2023/10/11 04:26:07;;;;;;;10.52;4.00;;;;;;;;;;4975458;28;20385;-69
2023/10/11 04:28:34;;;;;;;6.18;3.33;;;;;;;;;;4975625;28;20090;-70
2023/10/11 04:33:45;;;;;;;10.45;3.88;;;;;;;;;;4988001;28;20274;-70
2023/10/11 04:36:11;;;;;;;9.30;3.55;;;;;;;;;;4974694;28;20041;-70
2023/10/11 04:38:38;;;;;;;15.85;5.03;;;;;;;;;;4973680;28;20485;-71
2023/10/11 04:41:14;;;;;;;13.82;4.60;;;;;;;;;;4974895;28;20516;-71
2023/10/11 04:43:50;;;;;;;9.85;3.83;;;;;;;;;;4974810;28;20050;-70
2023/10/11 04:46:27;;;;;;;11.77;4.50;;;;;;;;;;4974273;28;20492;-70
2023/10/11 04:49:03;;;;;;;13.02;4.25;;;;;;;;;;4974678;28;20038;-71
2023/10/11 04:51:38;;;;;;;19.73;4.95;;;;;;;;;;4975022;28;20092;-71
2023/10/11 04:54:13;;;;;;;10.27;4.35;;;;;;;;;;4974284;28;20509;-71
2023/10/11 05:02:07;;;;;;;9.20;4.05;;;;;;;;;;4955510;28;20047;-71
2023/10/11 05:04:34;;;;;;;9.95;3.75;;;;;;;;;;4954724;28;20046;-71
2023/10/11 05:07:46;;;;;;;17.00;5.70;;;;;;;;;;4955219;28;20509;-70
2023/10/11 05:09:56;;;;;;;17.83;5.57;;;;;;;;;;4952161;29;20043;-70
2023/10/11 05:12:22;;;;;;;10.27;3.65;;;;;;;;;;4955036;28;20059;-71
2023/10/11 05:19:44;;;;;;;13.23;5.10;;;;;;;;;;4954923;28;20070;-74
2023/10/11 05:33:09;;;;;;;16.60;5.30;;;;;;;;;;4990705;28;20043;-73
2023/10/11 05:52:09;;;;;;;10.50;4.32;;;;;;;;;;4991043;28;20039;-72
2023/10/11 05:54:37;;;;;;;13.05;5.57;;;;;;;;;;4992265;28;20081;-72
2023/10/11 05:57:06;;;;;;;18.73;5.47;;;;;;;;;;4991927;28;20472;-72
2023/10/11 05:59:35;;;;;;;17.15;5.18;;;;;;;;;;4992344;28;20034;-73
2023/10/11 06:02:13;;;;;;;20.75;6.35;;;;;;;;;;4992492;28;20535;-72
2023/10/11 06:04:39;;;;;;;13.45;5.20;;;;;;;;;;4953373;28;20046;-74
2023/10/11 06:07:06;;;;;;;17.25;6.05;;;;;;;;;;4953676;28;20381;-73
2023/10/11 06:09:39;;;;;;;15.27;5.53;;;;;;;;;;4952724;28;20397;-73
2023/10/11 06:12:22;;;;;;;13.57;5.57;;;;;;;;;;4952357;28;20098;-72
2023/10/11 06:14:50;;;;;;;11.70;5.50;;;;;;;;;;4952910;28;20047;-73
2023/10/11 06:17:21;;;;;;;15.25;5.25;;;;;;;;;;4953227;28;20027;-72
2023/10/11 06:19:53;;;;;;;22.55;7.13;;;;;;;;;;4953745;28;20182;-72
2023/10/11 06:22:21;;;;;;;14.52;5.35;;;;;;;;;;4953393;28;20039;-73
2023/10/11 06:24:48;;;;;;;11.23;4.68;;;;;;;;;;4953309;28;20153;-74
2023/10/11 06:29:59;;;;;;;12.95;5.15;;;;;;;;;;4953146;29;20137;-72
2023/10/11 06:32:24;;;;;;;11.70;4.22;;;;;;;;;;4953940;28;20397;-74
2023/10/11 06:34:51;;;;;;;11.70;4.57;;;;;;;;;;4952184;29;20043;-73
2023/10/11 06:37:19;;;;;;;18.02;4.38;;;;;;;;;;4953429;28;20031;-72
2023/10/11 06:44:57;;;;;;;8.15;3.80;;;;;;;;;;4953542;28;20039;-73
2023/10/11 06:47:26;;;;;;;14.90;4.00;;;;;;;;;;4953124;28;20031;-72
2023/10/11 06:49:55;;;;;;;9.23;3.67;;;;;;;;;;4953207;28;20071;-72
2023/10/11 06:52:25;;;;;;;7.93;3.65;;;;;;;;;;4953109;28;20505;-72
2023/10/11 06:57:45;;;;;;;17.00;5.03;;;;;;;;;;4986420;28;20046;-71
2023/10/11 07:00:21;;;;;;;9.77;4.60;;;;;;;;;;4991741;28;20041;-71
2023/10/11 07:03:21;;;;;;;8.90;4.20;;;;;;;;;;4991921;28;20049;-72
2023/10/11 07:05:49;;;;;;;10.55;4.00;;;;;;;;;;4991744;28;20104;-73
2023/10/11 07:08:17;;;;;;;7.88;4.70;;;;;;;;;;4988890;28;20549;-72
2023/10/11 07:11:00;;;;;;;11.50;4.03;;;;;;;;;;4972357;28;20046;-73
2023/10/11 07:13:30;;;;;;;10.13;4.00;;;;;;;;;;4985130;28;20177;-73
2023/10/11 07:16:08;;;;;;;6.82;3.50;;;;;;;;;;4971498;28;20153;-72
2023/10/11 07:18:39;;;;;;;5.97;3.70;;;;;;;;;;4971294;28;20047;-72
2023/10/11 07:21:09;;;;;;;5.13;3.72;;;;;;;;;;4972007;28;20028;-71
2023/10/11 07:29:01;;;;;;;7.05;3.88;;;;;;;;;;4971947;28;20093;-73
2023/10/11 07:31:32;;;;;;;7.72;3.88;;;;;;;;;;4971939;28;20097;-74
2023/10/11 07:34:06;;;;;;;8.50;4.22;;;;;;;;;;4970974;28;20126;-72
2023/10/11 07:36:39;;;;;;;6.75;4.22;;;;;;;;;;4971802;28;20039;-71
2023/10/11 07:42:08;;;;;;;8.20;4.40;;;;;;;;;;4971238;28;20497;-71
2023/10/11 07:44:38;;;;;;;7.93;3.85;;;;;;;;;;4971463;28;20045;-71
2023/10/11 07:47:15;;;;;;;7.00;3.60;;;;;;;;;;4971272;28;20031;-71
2023/10/11 07:49:41;;;;;;;7.85;4.35;;;;;;;;;;4971706;28;20089;-71
2023/10/11 07:52:09;;;;;;;7.60;3.92;;;;;;;;;;4971496;28;20118;-71
2023/10/11 07:54:39;;;;;;;9.75;4.07;;;;;;;;;;4970314;28;20105;-71
2023/10/11 07:57:12;;;;;;;7.95;4.22;;;;;;;;;;4971857;28;20043;-72
2023/10/11 07:59:39;;;;;;;9.27;4.30;;;;;;;;;;4971839;28;20119;-73
2023/10/11 08:02:09;;;;;;;11.23;4.45;;;;;;;;;;4971725;28;20027;-72
2023/10/11 08:04:46;;;;;;;8.27;4.18;;;;;;;;;;4971675;28;20069;-72
2023/10/11 08:07:16;;;;;;;7.40;4.13;;;;;;;;;;4971858;28;20413;-71
2023/10/11 08:09:45;;;;;;;7.35;4.00;;;;;;;;;;4971664;28;20074;-71
2023/10/11 08:12:24;;;;;;;10.82;3.92;;;;;;;;;;4971874;28;20030;-71
2023/10/11 08:14:53;;;;;;;10.55;4.18;;;;;;;;;;4970305;28;20035;-71
2023/10/11 08:17:20;;;;;;;8.43;3.70;;;;;;;;;;4971304;28;20026;-70
2023/10/11 08:19:48;;;;;;;6.90;3.17;;;;;;;;;;4970981;28;20082;-73
2023/10/11 08:22:15;;;;;;;8.73;3.10;;;;;;;;;;4971195;28;20034;-72
2023/10/11 08:24:46;;;;;;;7.18;3.17;;;;;;;;;;4971652;28;20097;-71
2023/10/11 08:27:14;;;;;;;6.03;3.70;;;;;;;;;;4971435;28;20046;-72
2023/10/11 08:29:43;;;;;;;7.55;3.63;;;;;;;;;;4971133;28;20058;-70
2023/10/11 08:32:13;;;;;;;10.68;3.92;;;;;;;;;;4974513;28;20043;-71
2023/10/11 08:34:46;;;;;;;10.60;3.67;;;;;;;;;;4974937;28;20053;-71
2023/10/11 08:37:14;;;;;;;6.40;3.30;;;;;;;;;;4975500;28;20043;-71
2023/10/11 08:39:44;;;;;;;6.65;3.03;;;;;;;;;;4975056;28;20035;-74
2023/10/11 08:42:16;;;;;;;7.07;3.38;;;;;;;;;;4974897;28;20467;-73
2023/10/11 08:44:46;;;;;;;12.57;3.90;;;;;;;;;;4975099;28;20070;-72
2023/10/11 08:47:13;;;;;;;7.10;3.10;;;;;;;;;;4974709;28;20038;-71
2023/10/11 08:49:41;;;;;;;8.25;3.55;;;;;;;;;;4975023;28;20038;-72
2023/10/11 08:52:10;;;;;;;8.18;2.78;;;;;;;;;;4974618;28;20468;-73
2023/10/11 08:54:41;;;;;;;7.68;3.50;;;;;;;;;;4974355;28;20042;-72
2023/10/11 08:57:07;;;;;;;6.25;3.20;;;;;;;;;;4972921;28;20460;-72
2023/10/11 08:59:39;;;;;;;6.65;3.00;;;;;;;;;;4974240;28;20027;-72
2023/10/11 09:02:10;;;;;;;6.53;2.95;;;;;;;;;;4973524;28;20039;-72
2023/10/11 09:04:55;;;;;;;5.40;2.92;;;;;;;;;;4974756;28;20022;-73
2023/10/11 09:07:45;;;;;;;7.90;2.97;;;;;;;;;;4993211;28;20044;-73
2023/10/11 09:10:28;;;;;;;9.07;3.63;;;;;;;;;;4993799;28;20481;-72
2023/10/11 09:12:57;;;;;;;8.63;2.90;;;;;;;;;;4993563;28;20066;-72
2023/10/11 09:15:44;;;;;;;7.70;3.28;;;;;;;;;;4991119;28;20034;-74
2023/10/11 09:18:17;;;;;;;7.57;3.30;;;;;;;;;;4993388;28;20048;-71
2023/10/11 09:21:09;;;;;;;6.30;3.20;;;;;;;;;;4993493;28;20065;-72
2023/10/11 09:23:37;;;;;;;7.22;3.30;;;;;;;;;;4992950;28;20092;-72
2023/10/11 09:26:05;;;;;;;6.13;3.58;;;;;;;;;;5007762;28;20097;-72
2023/10/11 09:28:34;;;;;;;9.85;3.65;;;;;;;;;;4993580;28;20030;-74
2023/10/11 09:31:15;;;;;;;7.05;4.07;;;;;;;;;;4993805;28;20027;-72
2023/10/11 09:34:00;;;;;;;11.02;4.28;;;;;;;;;;4993728;28;20034;-73
2023/10/11 09:36:28;;;;;;;8.95;4.70;;;;;;;;;;4992596;28;20046;-72
2023/10/11 09:38:54;;;;;;;7.72;4.50;;;;;;;;;;4992920;28;20109;-72
2023/10/11 09:41:25;;;;;;;7.80;5.03;;;;;;;;;;5007391;28;20437;-72
2023/10/11 09:43:57;;;;;;;8.05;5.07;;;;;;;;;;4992993;28;20488;-73
2023/10/11 09:46:30;;;;;;;9.13;4.78;;;;;;;;;;4992582;28;20122;-72
2023/10/11 09:49:01;;;;;;;8.70;5.15;;;;;;;;;;4971603;28;20041;-72
2023/10/11 09:51:28;;;;;;;10.13;5.47;;;;;;;;;;4972726;28;20111;-73
2023/10/11 09:53:54;;;;;;;8.52;5.05;;;;;;;;;;4972600;28;20035;-73
2023/10/11 09:56:35;;;;;;;7.07;4.63;;;;;;;;;;4973328;28;20098;-72
2023/10/11 09:59:22;;;;;;;8.50;5.35;;;;;;;;;;4972345;28;20420;-72
2023/10/11 10:02:06;;;;;;;15.60;6.88;;;;;;;;;;4973639;28;20046;-73
2023/10/11 10:04:51;;;;;;;9.32;6.05;;;;;;;;;;4975566;28;20034;-72
2023/10/11 10:07:25;;;;;;;11.25;5.38;;;;;;;;;;4973264;28;20485;-73
2023/10/11 10:09:59;;;;;;;11.48;5.68;;;;;;;;;;4973287;28;20035;-73
2023/10/11 10:12:43;;;;;;;9.30;6.00;;;;;;;;;;4973368;28;20241;-73
2023/10/11 10:15:23;;;;;;;13.18;5.85;;;;;;;;;;4973201;28;20035;-73
2023/10/11 10:18:00;;;;;;;11.73;6.65;;;;;;;;;;4973222;28;20051;-73
2023/10/11 10:20:43;;;;;;;9.40;6.05;;;;;;;;;;4973023;28;20041;-73
2023/10/11 10:23:15;;;;;;;13.35;9.13;;;;;;;;;;4973335;28;20485;-72
2023/10/11 10:26:03;;;;;;;31.25;11.13;;;;;;;;;;4972595;28;20041;-73
2023/10/11 10:28:34;;;;;;;25.40;9.68;;;;;;;;;;4972627;28;20769;-72
2023/10/11 10:31:16;;;;;;;13.05;6.82;;;;;;;;;;4973138;28;20041;-73
2023/10/11 10:33:43;;;;;;;28.20;8.30;;;;;;;;;;4972895;28;20031;-73
2023/10/11 10:36:18;;;;;;;7.72;4.63;;;;;;;;;;4972644;28;20042;-74
2023/10/11 10:41:36;;;;;;;15.98;5.82;;;;;;;;;;4972721;28;20125;-74
2023/10/11 10:44:08;;;;;;;21.73;6.47;;;;;;;;;;4972415;28;20027;-73
2023/10/11 10:46:35;;;;;;;12.00;5.35;;;;;;;;;;4972584;28;20118;-73
2023/10/11 10:49:02;;;;;;;9.32;5.30;;;;;;;;;;4972299;28;20026;-73
2023/10/11 10:51:35;;;;;;;11.07;5.50;;;;;;;;;;4972620;28;20056;-73
2023/10/11 10:54:13;;;;;;;;;;;;;;;;;;4971064;28;20030;-73
2023/10/11 10:56:40;;;;;;;12.07;5.85;;;;;;;;;;4972577;28;19949;-73
2023/10/11 10:59:12;;;;;;;9.82;5.13;;;;;;;;;;4972595;28;20062;-74
2023/10/11 11:01:44;;;;;;;9.15;4.20;;;;;;;;;;4972626;28;20045;-73
2023/10/11 11:04:24;;;;;;;18.02;6.18;;;;;;;;;;4973309;28;20057;-73
2023/10/11 11:06:53;;;;;;;15.27;5.47;;;;;;;;;;4972062;28;20038;-73
2023/10/11 11:09:25;;;;;;;36.45;6.80;;;;;;;;;;4972640;28;20508;-73
2023/10/11 11:12:02;;;;;;;16.70;5.10;;;;;;;;;;4972369;28;20042;-72
2023/10/11 11:14:28;;;;;;;9.40;4.63;;;;;;;;;;4972555;28;20093;-73
2023/10/11 11:16:58;;;;;;;7.85;4.53;;;;;;;;;;4972310;28;20022;-74
2023/10/11 11:19:32;;;;;;;10.23;3.70;;;;;;;;;;4972511;28;20042;-72
2023/10/11 11:22:12;;;;;;;6.55;4.53;;;;;;;;;;4972227;28;20130;-73
2023/10/11 11:24:41;;;;;;;12.82;4.70;;;;;;;;;;4957248;28;20049;-72
2023/10/11 11:27:26;;;;;;;12.48;4.80;;;;;;;;;;4951655;28;20046;-73
2023/10/11 11:29:53;;;;;;;10.77;4.70;;;;;;;;;;4951755;28;20058;-73
2023/10/11 11:32:38;;;;;;;6.47;4.40;;;;;;;;;;4950484;28;20027;-73
2023/10/11 11:35:10;;;;;;;10.07;4.00;;;;;;;;;;4982615;28;20477;-74
2023/10/11 11:37:38;;;;;;;9.88;3.80;;;;;;;;;;4991486;28;20144;-73
2023/10/11 11:40:19;;;;;;;6.53;4.00;;;;;;;;;;4990936;28;20511;-73
2023/10/11 11:42:47;;;;;;;12.80;5.35;;;;;;;;;;5004874;28;20046;-73
2023/10/11 11:45:14;;;;;;;7.25;4.53;;;;;;;;;;4990609;28;20165;-75
2023/10/11 11:47:53;;;;;;;7.57;4.55;;;;;;;;;;5006258;28;20087;-73
2023/10/11 11:50:20;;;;;;;8.18;4.68;;;;;;;;;;4990439;28;20064;-74
2023/10/11 11:52:46;;;;;;;4.93;3.40;;;;;;;;;;4990448;28;20065;-75
2023/10/11 11:55:11;;;;;;;8.95;3.33;;;;;;;;;;4989098;28;20071;-75
2023/10/11 11:57:37;;;;;;;7.70;3.88;;;;;;;;;;4992211;28;20042;-74
2023/10/11 12:00:21;;;;;;;5.72;3.70;;;;;;;;;;4990969;28;20037;-74
2023/10/11 12:02:47;;;;;;;6.60;3.20;;;;;;;;;;5004032;28;20187;-77
2023/10/11 12:05:13;;;;;;;6.20;3.42;;;;;;;;;;5007798;28;20074;-73
2023/10/11 12:07:38;;;;;;;5.80;3.22;;;;;;;;;;4994760;28;20038;-75
2023/10/11 12:10:23;;;;;;;9.27;2.67;;;;;;;;;;4976218;28;20478;-74
2023/10/11 12:12:53;;;;;;;8.95;2.97;;;;;;;;;;4975798;28;20034;-76
2023/10/11 12:15:19;;;;;;;13.75;2.90;;;;;;;;;;4976596;28;20058;-74
2023/10/11 12:17:45;;;;;;;11.43;2.60;;;;;;;;;;4977124;28;20031;-74
2023/10/11 12:20:14;;;;;;;5.72;2.53;;;;;;;;;;4973193;28;20035;-74
2023/10/11 12:22:42;;;;;;;10.38;3.30;;;;;;;;;;4984207;28;20034;-73
2023/10/11 12:25:12;;;;;;;6.65;2.53;;;;;;;;;;4994158;28;20048;-75
2023/10/11 12:27:41;;;;;;;7.43;2.78;;;;;;;;;;4994259;28;20042;-75
2023/10/11 12:30:10;;;;;;;6.20;2.22;;;;;;;;;;4992755;28;20034;-74
2023/10/11 12:32:38;;;;;;;12.57;2.60;;;;;;;;;;4979082;28;20444;-74
2023/10/11 12:35:08;;;;;;;10.45;2.80;;;;;;;;;;4997719;28;20039;-74
2023/10/11 12:37:33;;;;;;;7.00;2.40;;;;;;;;;;4993559;28;20493;-79
2023/10/11 12:39:59;;;;;;;9.30;2.80;;;;;;;;;;4992913;28;20037;-73
2023/10/11 12:42:25;;;;;;;8.35;2.78;;;;;;;;;;4994185;28;20058;-74
2023/10/11 12:44:51;;;;;;;7.20;2.67;;;;;;;;;;4993785;28;20325;-74
2023/10/11 12:47:19;;;;;;;7.45;2.10;;;;;;;;;;4994145;28;20030;-73
2023/10/11 12:49:46;;;;;;;5.63;2.45;;;;;;;;;;4994871;28;20472;-76
2023/10/11 12:52:17;;;;;;;7.85;2.75;;;;;;;;;;4993212;28;20045;-76
2023/10/11 12:54:43;;;;;;;5.60;2.50;;;;;;;;;;4992973;28;20056;-74
2023/10/11 12:57:09;;;;;;;7.40;2.55;;;;;;;;;;4979693;28;20030;-75
2023/10/11 12:59:35;;;;;;;7.13;2.53;;;;;;;;;;4978415;28;20468;-73
2023/10/11 13:02:04;;;;;;;6.15;2.28;;;;;;;;;;4994339;28;20041;-72
2023/10/11 13:04:36;;;;;;;5.60;2.42;;;;;;;;;;4994339;28;20037;-71
2023/10/11 13:07:10;;;;;;;4.85;2.20;;;;;;;;;;4993813;28;20038;-74
2023/10/11 13:09:36;;;;;;;5.55;2.05;;;;;;;;;;4994349;28;20061;-73
2023/10/11 13:12:03;;;;;;;5.25;2.25;;;;;;;;;;4994175;28;20495;-73
2023/10/11 13:14:31;;;;;;;5.75;2.30;;;;;;;;;;4994079;28;20045;-72
2023/10/11 13:17:00;;;;;;;11.48;2.45;;;;;;;;;;4993499;28;20022;-73
2023/10/11 13:19:27;;;;;;;5.82;2.33;;;;;;;;;;4994414;28;20034;-73
2023/10/11 13:21:54;;;;;;;9.05;2.40;;;;;;;;;;4993873;28;20037;-73
2023/10/11 13:24:22;;;;;;;6.32;2.28;;;;;;;;;;4991307;28;20034;-73
2023/10/11 13:26:51;;;;;;;5.20;2.00;;;;;;;;;;4974201;28;20089;-72
2023/10/11 13:29:18;;;;;;;6.93;2.50;;;;;;;;;;4972954;28;20039;-73
2023/10/11 13:31:55;;;;;;;5.75;2.20;;;;;;;;;;4973999;28;20057;-74
2023/10/11 13:34:23;;;;;;;6.38;2.45;;;;;;;;;;4973809;28;20031;-72
2023/10/11 13:36:49;;;;;;;6.00;2.03;;;;;;;;;;4972940;28;20058;-73
2023/10/11 13:39:27;;;;;;;4.35;2.15;;;;;;;;;;4973955;28;20047;-73
2023/10/11 13:41:58;;;;;;;9.23;2.28;;;;;;;;;;4974443;28;20078;-72
2023/10/11 13:44:25;;;;;;;4.97;2.47;;;;;;;;;;4983235;28;20072;-74
2023/10/11 13:46:58;;;;;;;3.78;2.00;;;;;;;;;;4984521;28;20170;-71
2023/10/11 13:49:26;;;;;;;8.25;2.47;;;;;;;;;;4974670;28;20034;-72
2023/10/11 13:51:51;;;;;;;5.82;2.20;;;;;;;;;;4972842;28;20039;-73
2023/10/11 13:54:31;;;;;;;3.47;2.35;;;;;;;;;;4970383;28;20042;-72
2023/10/11 13:57:10;;;;;;;8.77;2.20;;;;;;;;;;4973690;28;20034;-74
2023/10/11 13:59:37;;;;;;;5.85;2.35;;;;;;;;;;4974065;28;20039;-74
2023/10/11 14:05:15;;;;;;;6.07;2.42;;;;;;;;;;4968745;28;20184;-74
2023/10/11 14:07:50;;;;;;;6.38;2.50;;;;;;;;;;4970278;28;20042;-75
2023/10/11 14:10:27;;;;;;;4.60;2.50;;;;;;;;;;4964660;28;20042;-75
2023/10/11 14:12:57;;;;;;;6.47;2.28;;;;;;;;;;4972566;28;20035;-75
2023/10/11 14:15:24;;;;;;;6.55;2.13;;;;;;;;;;4970590;28;20049;-75
2023/10/11 14:17:50;;;;;;;10.55;3.20;;;;;;;;;;4973417;28;20041;-74
2023/10/11 14:20:23;;;;;;;8.27;2.70;;;;;;;;;;4972554;28;20051;-74
2023/10/11 14:22:50;;;;;;;5.72;2.30;;;;;;;;;;4973849;28;20444;-74
2023/10/11 14:25:18;;;;;;;10.75;3.10;;;;;;;;;;4972335;28;20552;-75
2023/10/11 14:27:48;;;;;;;8.13;2.00;;;;;;;;;;4972284;28;20042;-74
2023/10/11 14:30:14;;;;;;;5.07;2.10;;;;;;;;;;4973060;28;20089;-74
2023/10/11 14:32:41;;;;;;;6.95;2.40;;;;;;;;;;4971571;28;20049;-73
2023/10/11 14:35:11;;;;;;;8.30;2.42;;;;;;;;;;4972130;28;20486;-74
2023/10/11 14:37:40;;;;;;;8.40;2.60;;;;;;;;;;4972803;28;20535;-73
2023/10/11 14:40:21;;;;;;;11.82;2.50;;;;;;;;;;4977016;28;20544;-74
2023/10/11 14:42:48;;;;;;;9.93;2.40;;;;;;;;;;4972201;28;20496;-74
2023/10/11 14:45:16;;;;;;;4.82;2.00;;;;;;;;;;4971850;28;20046;-74
2023/10/11 14:47:45;;;;;;;5.28;2.45;;;;;;;;;;4972605;28;20554;-74
2023/10/11 14:50:16;;;;;;;7.88;2.30;;;;;;;;;;4971268;28;20042;-71
2023/10/11 14:52:45;;;;;;;7.75;2.20;;;;;;;;;;4972413;28;20190;-73
2023/10/11 14:55:17;;;;;;;8.77;2.42;;;;;;;;;;4965698;28;20070;-74
2023/10/11 14:57:51;;;;;;;6.95;2.20;;;;;;;;;;4967265;28;20051;-73
2023/10/11 15:00:18;;;;;;;6.97;2.20;;;;;;;;;;4968918;28;20035;-74
2023/10/11 15:02:44;;;;;;;11.25;2.35;;;;;;;;;;4970942;28;20701;-73
2023/10/11 15:05:15;;;;;;;7.13;2.50;;;;;;;;;;4963290;28;20042;-73
2023/10/11 15:07:51;;;;;;;13.90;2.55;;;;;;;;;;4971989;28;20039;-73
2023/10/11 15:10:23;;;;;;;8.38;2.10;;;;;;;;;;4972876;28;20035;-73
2023/10/11 15:12:51;;;;;;;7.68;1.90;;;;;;;;;;4971770;28;20088;-74
2023/10/11 15:15:19;;;;;;;13.18;2.08;;;;;;;;;;4971575;28;20054;-73
2023/10/11 15:17:47;;;;;;;10.45;2.47;;;;;;;;;;4971983;28;20101;-74
2023/10/11 15:20:14;;;;;;;6.18;2.30;;;;;;;;;;4986441;28;20527;-73
2023/10/11 15:22:43;;;;;;;8.32;2.00;;;;;;;;;;4970778;28;20118;-73
2023/10/11 15:25:10;;;;;;;10.63;2.42;;;;;;;;;;4971327;28;20465;-72
2023/10/11 15:27:36;;;;;;;5.72;2.17;;;;;;;;;;4966643;28;20035;-73
2023/10/11 15:30:06;;;;;;;13.95;2.60;;;;;;;;;;4969669;28;20493;-72
2023/10/11 15:32:33;;;;;;;9.35;2.70;;;;;;;;;;4971055;28;20076;-73
2023/10/11 15:34:59;;;;;;;9.45;2.40;;;;;;;;;;4971865;28;20110;-74
2023/10/11 15:37:30;;;;;;;7.05;2.03;;;;;;;;;;4971648;28;20478;-73
2023/10/11 15:39:57;;;;;;;12.75;3.70;;;;;;;;;;4973253;28;20570;-72
2023/10/11 15:42:22;;;;;;;5.88;2.25;;;;;;;;;;4990813;28;20298;-73
2023/10/11 15:44:49;;;;;;;6.30;2.83;;;;;;;;;;4975750;28;20046;-72
2023/10/11 15:47:14;;;;;;;7.32;2.63;;;;;;;;;;4957932;28;20033;-73
2023/10/11 15:49:41;;;;;;;7.95;2.28;;;;;;;;;;4975523;28;20031;-73
2023/10/11 15:52:09;;;;;;;9.70;2.40;;;;;;;;;;4975781;28;20363;-72
2023/10/11 15:54:37;;;;;;;11.10;3.22;;;;;;;;;;4975361;28;20038;-72
2023/10/11 15:57:04;;;;;;;7.57;2.30;;;;;;;;;;4975272;28;20030;-72
2023/10/11 15:59:30;;;;;;;9.48;2.42;;;;;;;;;;4975624;28;20496;-73
2023/10/11 16:01:56;;;;;;;12.70;2.47;;;;;;;;;;4975378;28;20022;-73
2023/10/11 16:04:23;;;;;;;6.85;2.03;;;;;;;;;;4967675;28;20174;-73
2023/10/11 16:06:49;;;;;;;7.25;3.20;;;;;;;;;;4977176;28;20268;-73
2023/10/11 16:09:16;;;;;;;6.95;2.40;;;;;;;;;;4975703;28;20037;-74